sensor_id;sensor_type;location;lat;lon;timestamp;P1;durP1;ratioP1;P2;durP2;ratioP2
55031;SDS011;40928;51.076;7.950;2024-02-26T00:00:35;1.00;;;0.30;;
55031;SDS011;40928;51.076;7.950;2024-02-26T00:03:02;0.30;;;0.30;;
55031;SDS011;40928;51.076;7.950;2024-02-26T00:05:28;0.75;;;0.30;;
55031;SDS011;40928;51.076;7.950;2024-02-26T00:07:54;0.52;;;0.40;;
55031;SDS011;40928;51.076;7.950;2024-02-26T00:10:19;1.33;;;0.40;;
55031;SDS011;40928;51.076;7.950;2024-02-26T00:12:45;0.68;;;0.40;;
55031;SDS011;40928;51.076;7.950;2024-02-26T00:15:10;0.98;;;0.40;;
55031;SDS011;40928;51.076;7.950;2024-02-26T00:17:36;4.68;;;0.77;;
55031;SDS011;40928;51.076;7.950;2024-02-26T00:20:05;1.75;;;0.50;;
55031;SDS011;40928;51.076;7.950;2024-02-26T00:22:36;1.90;;;0.40;;
55031;SDS011;40928;51.076;7.950;2024-02-26T00:25:05;0.77;;;0.40;;
55031;SDS011;40928;51.076;7.950;2024-02-26T00:27:31;0.30;;;0.30;;
55031;SDS011;40928;51.076;7.950;2024-02-26T00:29:56;1.15;;;0.43;;
55031;SDS011;40928;51.076;7.950;2024-02-26T00:32:22;5.05;;;0.73;;
55031;SDS011;40928;51.076;7.950;2024-02-26T00:34:48;1.88;;;0.70;;
55031;SDS011;40928;51.076;7.950;2024-02-26T00:37:16;4.40;;;0.82;;
55031;SDS011;40928;51.076;7.950;2024-02-26T00:39:42;1.08;;;0.30;;
55031;SDS011;40928;51.076;7.950;2024-02-26T00:42:08;0.90;;;0.40;;
55031;SDS011;40928;51.076;7.950;2024-02-26T00:44:33;1.55;;;0.38;;
55031;SDS011;40928;51.076;7.950;2024-02-26T00:46:59;1.23;;;0.40;;
55031;SDS011;40928;51.076;7.950;2024-02-26T00:49:27;0.60;;;0.30;;
55031;SDS011;40928;51.076;7.950;2024-02-26T00:51:53;0.93;;;0.40;;
55031;SDS011;40928;51.076;7.950;2024-02-26T00:54:21;0.75;;;0.20;;
55031;SDS011;40928;51.076;7.950;2024-02-26T00:56:47;0.30;;;0.20;;
55031;SDS011;40928;51.076;7.950;2024-02-26T00:59:13;0.80;;;0.30;;
55031;SDS011;40928;51.076;7.950;2024-02-26T01:01:39;0.80;;;0.40;;
55031;SDS011;40928;51.076;7.950;2024-02-26T01:04:05;0.68;;;0.30;;
55031;SDS011;40928;51.076;7.950;2024-02-26T01:06:30;4.20;;;0.40;;
55031;SDS011;40928;51.076;7.950;2024-02-26T01:08:59;0.75;;;0.30;;
55031;SDS011;40928;51.076;7.950;2024-02-26T01:11:25;0.50;;;0.30;;
55031;SDS011;40928;51.076;7.950;2024-02-26T01:13:50;0.43;;;0.30;;
55031;SDS011;40928;51.076;7.950;2024-02-26T01:16:22;1.08;;;0.30;;
55031;SDS011;40928;51.076;7.950;2024-02-26T01:18:54;1.48;;;0.35;;
55031;SDS011;40928;51.076;7.950;2024-02-26T01:21:20;0.50;;;0.30;;
55031;SDS011;40928;51.076;7.950;2024-02-26T01:23:46;0.30;;;0.20;;
55031;SDS011;40928;51.076;7.950;2024-02-26T01:26:11;0.70;;;0.40;;
55031;SDS011;40928;51.076;7.950;2024-02-26T01:28:37;0.52;;;0.30;;
55031;SDS011;40928;51.076;7.950;2024-02-26T01:31:03;0.63;;;0.40;;
55031;SDS011;40928;51.076;7.950;2024-02-26T01:33:31;1.92;;;0.43;;
55031;SDS011;40928;51.076;7.950;2024-02-26T01:35:57;1.75;;;0.60;;
55031;SDS011;40928;51.076;7.950;2024-02-26T01:38:26;0.65;;;0.30;;
55031;SDS011;40928;51.076;7.950;2024-02-26T01:40:52;0.73;;;0.40;;
55031;SDS011;40928;51.076;7.950;2024-02-26T01:43:18;0.98;;;0.57;;
55031;SDS011;40928;51.076;7.950;2024-02-26T01:45:44;0.77;;;0.45;;
55031;SDS011;40928;51.076;7.950;2024-02-26T01:48:09;1.40;;;0.52;;
55031;SDS011;40928;51.076;7.950;2024-02-26T01:50:36;1.20;;;0.40;;
55031;SDS011;40928;51.076;7.950;2024-02-26T01:53:03;0.70;;;0.28;;
55031;SDS011;40928;51.076;7.950;2024-02-26T01:55:32;0.52;;;0.47;;
55031;SDS011;40928;51.076;7.950;2024-02-26T01:57:58;0.63;;;0.32;;
55031;SDS011;40928;51.076;7.950;2024-02-26T02:00:25;1.33;;;0.43;;
55031;SDS011;40928;51.076;7.950;2024-02-26T02:02:51;0.82;;;0.50;;
55031;SDS011;40928;51.076;7.950;2024-02-26T02:05:17;1.92;;;0.68;;
55031;SDS011;40928;51.076;7.950;2024-02-26T02:07:45;1.65;;;0.30;;
55031;SDS011;40928;51.076;7.950;2024-02-26T02:10:19;0.93;;;0.50;;
55031;SDS011;40928;51.076;7.950;2024-02-26T02:12:48;0.98;;;0.60;;
55031;SDS011;40928;51.076;7.950;2024-02-26T02:15:14;2.70;;;0.55;;
55031;SDS011;40928;51.076;7.950;2024-02-26T02:17:40;1.98;;;0.73;;
55031;SDS011;40928;51.076;7.950;2024-02-26T02:20:09;3.38;;;1.20;;
55031;SDS011;40928;51.076;7.950;2024-02-26T02:22:40;2.22;;;0.82;;
55031;SDS011;40928;51.076;7.950;2024-02-26T02:25:06;3.17;;;1.35;;
55031;SDS011;40928;51.076;7.950;2024-02-26T02:27:32;1.15;;;0.70;;
55031;SDS011;40928;51.076;7.950;2024-02-26T02:30:01;1.48;;;0.60;;
55031;SDS011;40928;51.076;7.950;2024-02-26T02:32:28;2.28;;;0.80;;
55031;SDS011;40928;51.076;7.950;2024-02-26T02:34:58;1.52;;;0.50;;
55031;SDS011;40928;51.076;7.950;2024-02-26T02:37:23;2.80;;;0.75;;
55031;SDS011;40928;51.076;7.950;2024-02-26T02:39:49;1.23;;;0.50;;
55031;SDS011;40928;51.076;7.950;2024-02-26T02:42:18;0.90;;;0.50;;
55031;SDS011;40928;51.076;7.950;2024-02-26T02:44:44;1.35;;;0.38;;
55031;SDS011;40928;51.076;7.950;2024-02-26T02:47:09;0.52;;;0.30;;
55031;SDS011;40928;51.076;7.950;2024-02-26T02:49:35;0.70;;;0.50;;
55031;SDS011;40928;51.076;7.950;2024-02-26T02:52:01;0.40;;;0.30;;
55031;SDS011;40928;51.076;7.950;2024-02-26T02:54:27;0.75;;;0.40;;
55031;SDS011;40928;51.076;7.950;2024-02-26T02:56:55;1.08;;;0.68;;
55031;SDS011;40928;51.076;7.950;2024-02-26T02:59:21;1.10;;;0.45;;
55031;SDS011;40928;51.076;7.950;2024-02-26T03:01:50;0.70;;;0.40;;
55031;SDS011;40928;51.076;7.950;2024-02-26T03:04:15;1.00;;;0.55;;
55031;SDS011;40928;51.076;7.950;2024-02-26T03:06:41;0.98;;;0.55;;
55031;SDS011;40928;51.076;7.950;2024-02-26T03:09:10;1.10;;;0.43;;
55031;SDS011;40928;51.076;7.950;2024-02-26T03:11:35;1.92;;;0.50;;
55031;SDS011;40928;51.076;7.950;2024-02-26T03:14:09;2.45;;;0.60;;
55031;SDS011;40928;51.076;7.950;2024-02-26T03:16:35;4.25;;;0.50;;
55031;SDS011;40928;51.076;7.950;2024-02-26T03:19:01;2.05;;;0.47;;
55031;SDS011;40928;51.076;7.950;2024-02-26T03:21:28;1.90;;;0.65;;
55031;SDS011;40928;51.076;7.950;2024-02-26T03:23:54;2.10;;;0.43;;
55031;SDS011;40928;51.076;7.950;2024-02-26T03:26:46;2.08;;;0.50;;
55031;SDS011;40928;51.076;7.950;2024-02-26T03:29:14;2.42;;;0.95;;
55031;SDS011;40928;51.076;7.950;2024-02-26T03:31:40;2.50;;;0.40;;
55031;SDS011;40928;51.076;7.950;2024-02-26T03:34:05;1.08;;;0.40;;
55031;SDS011;40928;51.076;7.950;2024-02-26T03:36:31;2.00;;;0.50;;
55031;SDS011;40928;51.076;7.950;2024-02-26T03:38:57;1.02;;;0.70;;
55031;SDS011;40928;51.076;7.950;2024-02-26T03:41:22;1.13;;;0.50;;
55031;SDS011;40928;51.076;7.950;2024-02-26T03:43:48;3.15;;;1.08;;
55031;SDS011;40928;51.076;7.950;2024-02-26T03:46:17;1.17;;;0.65;;
55031;SDS011;40928;51.076;7.950;2024-02-26T03:48:42;0.68;;;0.50;;
55031;SDS011;40928;51.076;7.950;2024-02-26T03:51:08;0.82;;;0.50;;
55031;SDS011;40928;51.076;7.950;2024-02-26T03:53:35;2.20;;;0.80;;
55031;SDS011;40928;51.076;7.950;2024-02-26T03:56:05;1.17;;;0.80;;
55031;SDS011;40928;51.076;7.950;2024-02-26T03:58:31;1.02;;;0.63;;
55031;SDS011;40928;51.076;7.950;2024-02-26T04:00:57;4.45;;;0.82;;
55031;SDS011;40928;51.076;7.950;2024-02-26T04:03:22;1.55;;;0.63;;
55031;SDS011;40928;51.076;7.950;2024-02-26T04:05:48;5.55;;;0.82;;
55031;SDS011;40928;51.076;7.950;2024-02-26T04:08:14;2.95;;;0.70;;
55031;SDS011;40928;51.076;7.950;2024-02-26T04:10:40;0.77;;;0.50;;
55031;SDS011;40928;51.076;7.950;2024-02-26T04:13:08;2.63;;;0.45;;
55031;SDS011;40928;51.076;7.950;2024-02-26T04:15:37;1.73;;;0.60;;
55031;SDS011;40928;51.076;7.950;2024-02-26T04:18:03;2.10;;;0.73;;
55031;SDS011;40928;51.076;7.950;2024-02-26T04:20:28;1.08;;;0.60;;
55031;SDS011;40928;51.076;7.950;2024-02-26T04:22:54;3.20;;;2.75;;
55031;SDS011;40928;51.076;7.950;2024-02-26T04:25:20;3.92;;;1.98;;
55031;SDS011;40928;51.076;7.950;2024-02-26T04:27:48;1.90;;;1.17;;
55031;SDS011;40928;51.076;7.950;2024-02-26T04:30:14;0.98;;;0.50;;
55031;SDS011;40928;51.076;7.950;2024-02-26T04:32:39;0.88;;;0.70;;
55031;SDS011;40928;51.076;7.950;2024-02-26T04:35:05;4.18;;;0.80;;
55031;SDS011;40928;51.076;7.950;2024-02-26T04:37:31;1.23;;;0.80;;
55031;SDS011;40928;51.076;7.950;2024-02-26T04:40:00;1.13;;;0.70;;
55031;SDS011;40928;51.076;7.950;2024-02-26T04:42:29;1.20;;;0.75;;
55031;SDS011;40928;51.076;7.950;2024-02-26T04:44:55;1.25;;;0.85;;
55031;SDS011;40928;51.076;7.950;2024-02-26T04:47:21;1.77;;;0.68;;
55031;SDS011;40928;51.076;7.950;2024-02-26T04:49:48;3.58;;;1.13;;
55031;SDS011;40928;51.076;7.950;2024-02-26T04:52:18;1.98;;;1.10;;
55031;SDS011;40928;51.076;7.950;2024-02-26T04:54:47;3.80;;;2.03;;
55031;SDS011;40928;51.076;7.950;2024-02-26T04:57:12;3.80;;;1.15;;
55031;SDS011;40928;51.076;7.950;2024-02-26T04:59:44;2.83;;;1.02;;
55031;SDS011;40928;51.076;7.950;2024-02-26T05:02:15;1.48;;;0.80;;
55031;SDS011;40928;51.076;7.950;2024-02-26T05:04:44;4.45;;;1.20;;
55031;SDS011;40928;51.076;7.950;2024-02-26T05:07:10;1.95;;;0.82;;
55031;SDS011;40928;51.076;7.950;2024-02-26T05:09:37;3.55;;;1.33;;
55031;SDS011;40928;51.076;7.950;2024-02-26T05:12:03;2.20;;;1.17;;
55031;SDS011;40928;51.076;7.950;2024-02-26T05:14:32;2.78;;;1.52;;
55031;SDS011;40928;51.076;7.950;2024-02-26T05:17:02;4.53;;;2.30;;
55031;SDS011;40928;51.076;7.950;2024-02-26T05:19:41;3.25;;;2.00;;
55031;SDS011;40928;51.076;7.950;2024-02-26T05:22:06;4.38;;;2.00;;
55031;SDS011;40928;51.076;7.950;2024-02-26T05:24:32;4.68;;;1.92;;
55031;SDS011;40928;51.076;7.950;2024-02-26T05:26:58;4.03;;;1.60;;
55031;SDS011;40928;51.076;7.950;2024-02-26T05:29:25;2.67;;;1.52;;
55031;SDS011;40928;51.076;7.950;2024-02-26T05:31:53;3.05;;;1.50;;
55031;SDS011;40928;51.076;7.950;2024-02-26T05:34:19;2.42;;;1.58;;
55031;SDS011;40928;51.076;7.950;2024-02-26T05:36:45;5.70;;;1.65;;
55031;SDS011;40928;51.076;7.950;2024-02-26T05:39:13;3.05;;;1.10;;
55031;SDS011;40928;51.076;7.950;2024-02-26T05:41:45;2.72;;;1.33;;
55031;SDS011;40928;51.076;7.950;2024-02-26T05:44:14;1.60;;;1.10;;
55031;SDS011;40928;51.076;7.950;2024-02-26T05:46:41;3.22;;;1.25;;
55031;SDS011;40928;51.076;7.950;2024-02-26T05:49:07;3.03;;;1.25;;
55031;SDS011;40928;51.076;7.950;2024-02-26T05:51:37;2.72;;;1.52;;
55031;SDS011;40928;51.076;7.950;2024-02-26T05:54:04;3.80;;;1.65;;
55031;SDS011;40928;51.076;7.950;2024-02-26T05:56:33;4.72;;;1.33;;
55031;SDS011;40928;51.076;7.950;2024-02-26T05:58:59;4.38;;;1.80;;
55031;SDS011;40928;51.076;7.950;2024-02-26T06:01:24;5.70;;;2.08;;
55031;SDS011;40928;51.076;7.950;2024-02-26T06:03:51;3.95;;;1.60;;
55031;SDS011;40928;51.076;7.950;2024-02-26T06:06:16;3.25;;;1.38;;
55031;SDS011;40928;51.076;7.950;2024-02-26T06:08:43;3.97;;;2.20;;
55031;SDS011;40928;51.076;7.950;2024-02-26T06:11:09;3.17;;;1.55;;
55031;SDS011;40928;51.076;7.950;2024-02-26T06:13:34;2.70;;;1.67;;
55031;SDS011;40928;51.076;7.950;2024-02-26T06:16:00;3.53;;;2.00;;
55031;SDS011;40928;51.076;7.950;2024-02-26T06:18:27;2.63;;;1.55;;
55031;SDS011;40928;51.076;7.950;2024-02-26T06:20:56;2.97;;;1.48;;
55031;SDS011;40928;51.076;7.950;2024-02-26T06:23:26;2.47;;;1.30;;
55031;SDS011;40928;51.076;7.950;2024-02-26T06:25:58;4.60;;;1.50;;
55031;SDS011;40928;51.076;7.950;2024-02-26T06:28:25;3.63;;;1.30;;
55031;SDS011;40928;51.076;7.950;2024-02-26T06:30:56;1.98;;;0.98;;
55031;SDS011;40928;51.076;7.950;2024-02-26T06:33:24;2.67;;;1.25;;
55031;SDS011;40928;51.076;7.950;2024-02-26T06:35:51;3.88;;;1.00;;
55031;SDS011;40928;51.076;7.950;2024-02-26T06:38:21;3.45;;;1.08;;
55031;SDS011;40928;51.076;7.950;2024-02-26T06:40:47;3.08;;;1.20;;
55031;SDS011;40928;51.076;7.950;2024-02-26T06:43:17;3.25;;;1.63;;
55031;SDS011;40928;51.076;7.950;2024-02-26T06:45:48;1.95;;;1.23;;
55031;SDS011;40928;51.076;7.950;2024-02-26T06:48:18;3.50;;;0.90;;
55031;SDS011;40928;51.076;7.950;2024-02-26T06:50:44;2.22;;;1.10;;
55031;SDS011;40928;51.076;7.950;2024-02-26T06:53:12;3.15;;;0.80;;
55031;SDS011;40928;51.076;7.950;2024-02-26T06:55:40;1.67;;;1.00;;
55031;SDS011;40928;51.076;7.950;2024-02-26T06:58:06;2.90;;;1.15;;
55031;SDS011;40928;51.076;7.950;2024-02-26T07:00:36;1.75;;;0.93;;
55031;SDS011;40928;51.076;7.950;2024-02-26T07:06:16;2.40;;;1.10;;
55031;SDS011;40928;51.076;7.950;2024-02-26T07:09:33;3.17;;;1.15;;
55031;SDS011;40928;51.076;7.950;2024-02-26T07:12:00;1.85;;;0.80;;
55031;SDS011;40928;51.076;7.950;2024-02-26T07:14:27;1.02;;;0.80;;
55031;SDS011;40928;51.076;7.950;2024-02-26T07:16:53;4.07;;;1.08;;
55031;SDS011;40928;51.076;7.950;2024-02-26T07:19:19;1.77;;;1.00;;
55031;SDS011;40928;51.076;7.950;2024-02-26T07:21:45;5.80;;;1.33;;
55031;SDS011;40928;51.076;7.950;2024-02-26T07:24:11;2.92;;;1.15;;
55031;SDS011;40928;51.076;7.950;2024-02-26T07:26:38;4.32;;;1.27;;
55031;SDS011;40928;51.076;7.950;2024-02-26T07:29:06;1.98;;;0.90;;
55031;SDS011;40928;51.076;7.950;2024-02-26T07:31:34;2.85;;;0.80;;
55031;SDS011;40928;51.076;7.950;2024-02-26T07:34:02;3.33;;;0.85;;
55031;SDS011;40928;51.076;7.950;2024-02-26T07:36:28;2.03;;;1.00;;
55031;SDS011;40928;51.076;7.950;2024-02-26T07:38:54;1.75;;;0.90;;
55031;SDS011;40928;51.076;7.950;2024-02-26T07:41:20;2.55;;;1.15;;
55031;SDS011;40928;51.076;7.950;2024-02-26T07:43:46;3.72;;;1.10;;
55031;SDS011;40928;51.076;7.950;2024-02-26T07:46:12;4.25;;;1.67;;
55031;SDS011;40928;51.076;7.950;2024-02-26T07:48:39;3.42;;;1.42;;
55031;SDS011;40928;51.076;7.950;2024-02-26T07:51:05;7.50;;;2.35;;
55031;SDS011;40928;51.076;7.950;2024-02-26T07:53:34;6.20;;;2.50;;
55031;SDS011;40928;51.076;7.950;2024-02-26T07:56:03;3.53;;;1.65;;
55031;SDS011;40928;51.076;7.950;2024-02-26T07:58:28;4.20;;;1.45;;
55031;SDS011;40928;51.076;7.950;2024-02-26T08:00:55;2.45;;;1.20;;
55031;SDS011;40928;51.076;7.950;2024-02-26T08:03:21;2.72;;;1.08;;
55031;SDS011;40928;51.076;7.950;2024-02-26T08:05:48;1.67;;;0.90;;
55031;SDS011;40928;51.076;7.950;2024-02-26T08:08:14;1.75;;;0.90;;
55031;SDS011;40928;51.076;7.950;2024-02-26T08:10:39;1.52;;;0.80;;
55031;SDS011;40928;51.076;7.950;2024-02-26T08:13:08;1.60;;;1.17;;
55031;SDS011;40928;51.076;7.950;2024-02-26T08:15:37;1.60;;;1.00;;
55031;SDS011;40928;51.076;7.950;2024-02-26T08:18:04;2.92;;;1.17;;
55031;SDS011;40928;51.076;7.950;2024-02-26T08:20:31;2.47;;;1.10;;
55031;SDS011;40928;51.076;7.950;2024-02-26T08:22:59;7.55;;;2.30;;
55031;SDS011;40928;51.076;7.950;2024-02-26T08:25:25;8.27;;;2.50;;
55031;SDS011;40928;51.076;7.950;2024-02-26T08:27:51;3.92;;;1.40;;
55031;SDS011;40928;51.076;7.950;2024-02-26T08:30:17;3.58;;;1.10;;
55031;SDS011;40928;51.076;7.950;2024-02-26T08:32:43;1.50;;;0.82;;
55031;SDS011;40928;51.076;7.950;2024-02-26T08:35:11;1.73;;;0.93;;
55031;SDS011;40928;51.076;7.950;2024-02-26T08:37:39;1.30;;;0.80;;
55031;SDS011;40928;51.076;7.950;2024-02-26T08:40:05;3.17;;;1.00;;
55031;SDS011;40928;51.076;7.950;2024-02-26T08:42:32;1.63;;;0.98;;
55031;SDS011;40928;51.076;7.950;2024-02-26T08:44:57;3.17;;;1.00;;
55031;SDS011;40928;51.076;7.950;2024-02-26T08:47:26;3.85;;;1.23;;
55031;SDS011;40928;51.076;7.950;2024-02-26T08:49:54;3.88;;;1.00;;
55031;SDS011;40928;51.076;7.950;2024-02-26T08:52:21;1.90;;;0.80;;
55031;SDS011;40928;51.076;7.950;2024-02-26T08:54:47;1.13;;;0.75;;
55031;SDS011;40928;51.076;7.950;2024-02-26T08:57:13;1.70;;;1.05;;
55031;SDS011;40928;51.076;7.950;2024-02-26T08:59:40;4.65;;;1.00;;
55031;SDS011;40928;51.076;7.950;2024-02-26T09:02:08;4.22;;;1.20;;
55031;SDS011;40928;51.076;7.950;2024-02-26T09:04:35;3.67;;;1.10;;
55031;SDS011;40928;51.076;7.950;2024-02-26T09:07:03;1.60;;;1.17;;
55031;SDS011;40928;51.076;7.950;2024-02-26T09:09:29;2.85;;;1.17;;
55031;SDS011;40928;51.076;7.950;2024-02-26T09:11:54;1.75;;;1.10;;
55031;SDS011;40928;51.076;7.950;2024-02-26T09:14:22;2.50;;;1.15;;
55031;SDS011;40928;51.076;7.950;2024-02-26T09:16:48;3.35;;;1.05;;
55031;SDS011;40928;51.076;7.950;2024-02-26T09:19:17;1.83;;;1.10;;
55031;SDS011;40928;51.076;7.950;2024-02-26T09:21:44;3.50;;;1.00;;
55031;SDS011;40928;51.076;7.950;2024-02-26T09:24:11;2.83;;;0.93;;
55031;SDS011;40928;51.076;7.950;2024-02-26T09:26:38;2.30;;;1.30;;
55031;SDS011;40928;51.076;7.950;2024-02-26T09:29:06;2.28;;;1.10;;
55031;SDS011;40928;51.076;7.950;2024-02-26T09:31:33;3.72;;;1.33;;
55031;SDS011;40928;51.076;7.950;2024-02-26T09:33:59;2.30;;;1.27;;
55031;SDS011;40928;51.076;7.950;2024-02-26T09:36:25;4.35;;;1.50;;
55031;SDS011;40928;51.076;7.950;2024-02-26T09:38:52;3.10;;;1.40;;
55031;SDS011;40928;51.076;7.950;2024-02-26T09:41:19;4.90;;;2.40;;
55031;SDS011;40928;51.076;7.950;2024-02-26T09:43:46;2.47;;;1.38;;
55031;SDS011;40928;51.076;7.950;2024-02-26T09:46:17;3.40;;;1.30;;
55031;SDS011;40928;51.076;7.950;2024-02-26T09:48:45;3.90;;;1.83;;
55031;SDS011;40928;51.076;7.950;2024-02-26T09:51:12;2.97;;;1.40;;
55031;SDS011;40928;51.076;7.950;2024-02-26T09:53:45;2.13;;;1.27;;
55031;SDS011;40928;51.076;7.950;2024-02-26T09:56:19;2.90;;;1.52;;
55031;SDS011;40928;51.076;7.950;2024-02-26T09:58:46;2.95;;;1.45;;
55031;SDS011;40928;51.076;7.950;2024-02-26T10:01:18;3.53;;;1.60;;
55031;SDS011;40928;51.076;7.950;2024-02-26T10:03:47;4.85;;;1.30;;
55031;SDS011;40928;51.076;7.950;2024-02-26T10:06:20;1.98;;;1.30;;
55031;SDS011;40928;51.076;7.950;2024-02-26T10:08:49;3.17;;;1.15;;
55031;SDS011;40928;51.076;7.950;2024-02-26T10:11:16;3.60;;;1.45;;
55031;SDS011;40928;51.076;7.950;2024-02-26T10:13:44;2.42;;;1.20;;
55031;SDS011;40928;51.076;7.950;2024-02-26T10:16:10;3.45;;;1.70;;
55031;SDS011;40928;51.076;7.950;2024-02-26T10:18:48;2.63;;;1.20;;
55031;SDS011;40928;51.076;7.950;2024-02-26T10:21:21;2.70;;;1.13;;
55031;SDS011;40928;51.076;7.950;2024-02-26T10:23:48;2.20;;;1.52;;
55031;SDS011;40928;51.076;7.950;2024-02-26T10:26:17;3.58;;;1.23;;
55031;SDS011;40928;51.076;7.950;2024-02-26T10:28:44;3.35;;;1.60;;
55031;SDS011;40928;51.076;7.950;2024-02-26T10:31:14;8.70;;;1.60;;
55031;SDS011;40928;51.076;7.950;2024-02-26T10:33:40;5.93;;;1.92;;
55031;SDS011;40928;51.076;7.950;2024-02-26T10:36:08;3.97;;;1.58;;
55031;SDS011;40928;51.076;7.950;2024-02-26T10:38:41;3.53;;;1.73;;
55031;SDS011;40928;51.076;7.950;2024-02-26T10:41:07;4.20;;;1.48;;
55031;SDS011;40928;51.076;7.950;2024-02-26T10:43:41;3.85;;;2.00;;
55031;SDS011;40928;51.076;7.950;2024-02-26T10:46:09;3.08;;;1.52;;
55031;SDS011;40928;51.076;7.950;2024-02-26T10:48:36;3.90;;;1.70;;
55031;SDS011;40928;51.076;7.950;2024-02-26T10:51:02;2.83;;;1.20;;
55031;SDS011;40928;51.076;7.950;2024-02-26T10:53:29;3.40;;;1.63;;
55031;SDS011;40928;51.076;7.950;2024-02-26T10:56:01;6.18;;;1.98;;
55031;SDS011;40928;51.076;7.950;2024-02-26T10:58:29;2.45;;;1.50;;
55031;SDS011;40928;51.076;7.950;2024-02-26T11:00:57;5.10;;;1.35;;
55031;SDS011;40928;51.076;7.950;2024-02-26T11:03:24;5.88;;;1.70;;
55031;SDS011;40928;51.076;7.950;2024-02-26T11:05:51;2.53;;;1.50;;
55031;SDS011;40928;51.076;7.950;2024-02-26T11:08:21;3.58;;;2.33;;
55031;SDS011;40928;51.076;7.950;2024-02-26T11:10:50;3.22;;;2.20;;
55031;SDS011;40928;51.076;7.950;2024-02-26T11:13:18;4.70;;;2.85;;
55031;SDS011;40928;51.076;7.950;2024-02-26T11:15:50;6.45;;;4.25;;
55031;SDS011;40928;51.076;7.950;2024-02-26T11:20:48;4.85;;;2.20;;
55031;SDS011;40928;51.076;7.950;2024-02-26T11:23:16;4.75;;;2.50;;
55031;SDS011;40928;51.076;7.950;2024-02-26T11:25:42;8.15;;;2.47;;
55031;SDS011;40928;51.076;7.950;2024-02-26T11:28:10;4.22;;;2.25;;
55031;SDS011;40928;51.076;7.950;2024-02-26T11:30:39;4.25;;;1.95;;
55031;SDS011;40928;51.076;7.950;2024-02-26T11:33:09;4.50;;;1.92;;
55031;SDS011;40928;51.076;7.950;2024-02-26T11:35:37;5.85;;;2.22;;
55031;SDS011;40928;51.076;7.950;2024-02-26T11:41:20;3.38;;;2.10;;
55031;SDS011;40928;51.076;7.950;2024-02-26T11:44:01;4.97;;;2.03;;
55031;SDS011;40928;51.076;7.950;2024-02-26T11:46:31;3.15;;;1.65;;
55031;SDS011;40928;51.076;7.950;2024-02-26T11:48:59;4.45;;;2.58;;
55031;SDS011;40928;51.076;7.950;2024-02-26T11:51:27;6.40;;;3.10;;
55031;SDS011;40928;51.076;7.950;2024-02-26T11:53:57;5.95;;;2.97;;
55031;SDS011;40928;51.076;7.950;2024-02-26T11:56:24;9.75;;;2.47;;
55031;SDS011;40928;51.076;7.950;2024-02-26T12:02:02;10.38;;;5.03;;
55031;SDS011;40928;51.076;7.950;2024-02-26T12:04:29;8.98;;;3.97;;
55031;SDS011;40928;51.076;7.950;2024-02-26T12:06:56;12.38;;;5.07;;
55031;SDS011;40928;51.076;7.950;2024-02-26T12:09:37;15.38;;;6.65;;
55031;SDS011;40928;51.076;7.950;2024-02-26T12:12:08;9.35;;;4.60;;
55031;SDS011;40928;51.076;7.950;2024-02-26T12:14:37;8.13;;;3.80;;
55031;SDS011;40928;51.076;7.950;2024-02-26T12:17:20;5.38;;;2.53;;
55031;SDS011;40928;51.076;7.950;2024-02-26T12:19:47;4.03;;;2.50;;
55031;SDS011;40928;51.076;7.950;2024-02-26T12:22:13;7.15;;;3.45;;
55031;SDS011;40928;51.076;7.950;2024-02-26T12:24:44;10.75;;;2.65;;
55031;SDS011;40928;51.076;7.950;2024-02-26T12:27:10;5.32;;;2.60;;
55031;SDS011;40928;51.076;7.950;2024-02-26T12:29:36;5.10;;;3.10;;
55031;SDS011;40928;51.076;7.950;2024-02-26T12:32:02;4.40;;;2.40;;
55031;SDS011;40928;51.076;7.950;2024-02-26T12:34:29;8.98;;;3.42;;
55031;SDS011;40928;51.076;7.950;2024-02-26T12:36:56;9.65;;;2.65;;
55031;SDS011;40928;51.076;7.950;2024-02-26T12:39:22;8.40;;;3.10;;
55031;SDS011;40928;51.076;7.950;2024-02-26T12:41:48;6.05;;;2.95;;
55031;SDS011;40928;51.076;7.950;2024-02-26T12:44:17;6.80;;;2.65;;
55031;SDS011;40928;51.076;7.950;2024-02-26T12:46:44;7.03;;;3.15;;
55031;SDS011;40928;51.076;7.950;2024-02-26T12:49:14;8.27;;;3.15;;
55031;SDS011;40928;51.076;7.950;2024-02-26T12:51:41;7.97;;;3.80;;
55031;SDS011;40928;51.076;7.950;2024-02-26T12:54:07;15.07;;;5.32;;
55031;SDS011;40928;51.076;7.950;2024-02-26T12:56:34;9.10;;;3.42;;
55031;SDS011;40928;51.076;7.950;2024-02-26T12:59:00;6.75;;;3.42;;
55031;SDS011;40928;51.076;7.950;2024-02-26T13:01:27;7.32;;;3.40;;
55031;SDS011;40928;51.076;7.950;2024-02-26T13:03:54;5.22;;;2.88;;
55031;SDS011;40928;51.076;7.950;2024-02-26T13:06:20;6.57;;;3.00;;
55031;SDS011;40928;51.076;7.950;2024-02-26T13:08:47;5.40;;;3.25;;
55031;SDS011;40928;51.076;7.950;2024-02-26T13:11:12;6.85;;;3.50;;
55031;SDS011;40928;51.076;7.950;2024-02-26T13:13:38;5.03;;;3.25;;
55031;SDS011;40928;51.076;7.950;2024-02-26T13:16:09;10.40;;;5.10;;
55031;SDS011;40928;51.076;7.950;2024-02-26T13:18:39;7.00;;;3.60;;
55031;SDS011;40928;51.076;7.950;2024-02-26T13:21:08;6.97;;;3.47;;
55031;SDS011;40928;51.076;7.950;2024-02-26T13:23:42;10.43;;;4.32;;
55031;SDS011;40928;51.076;7.950;2024-02-26T13:26:08;8.20;;;4.32;;
55031;SDS011;40928;51.076;7.950;2024-02-26T13:28:38;10.48;;;4.07;;
55031;SDS011;40928;51.076;7.950;2024-02-26T13:31:04;6.78;;;4.03;;
55031;SDS011;40928;51.076;7.950;2024-02-26T13:33:41;5.40;;;3.35;;
55031;SDS011;40928;51.076;7.950;2024-02-26T13:36:30;9.57;;;3.55;;
55031;SDS011;40928;51.076;7.950;2024-02-26T13:38:57;6.85;;;3.13;;
55031;SDS011;40928;51.076;7.950;2024-02-26T13:41:23;10.23;;;4.10;;
55031;SDS011;40928;51.076;7.950;2024-02-26T13:43:50;6.65;;;3.50;;
55031;SDS011;40928;51.076;7.950;2024-02-26T13:46:17;6.65;;;3.88;;
55031;SDS011;40928;51.076;7.950;2024-02-26T13:48:46;9.27;;;3.78;;
55031;SDS011;40928;51.076;7.950;2024-02-26T13:51:14;6.68;;;3.60;;
55031;SDS011;40928;51.076;7.950;2024-02-26T13:53:49;8.32;;;3.53;;
55031;SDS011;40928;51.076;7.950;2024-02-26T13:56:16;6.82;;;3.42;;
55031;SDS011;40928;51.076;7.950;2024-02-26T13:58:41;5.45;;;3.63;;
55031;SDS011;40928;51.076;7.950;2024-02-26T14:01:07;8.05;;;3.70;;
55031;SDS011;40928;51.076;7.950;2024-02-26T14:03:33;6.97;;;3.92;;
55031;SDS011;40928;51.076;7.950;2024-02-26T14:06:02;6.63;;;3.53;;
55031;SDS011;40928;51.076;7.950;2024-02-26T14:08:29;7.28;;;4.00;;
55031;SDS011;40928;51.076;7.950;2024-02-26T14:10:55;11.93;;;4.05;;
55031;SDS011;40928;51.076;7.950;2024-02-26T14:13:21;5.53;;;2.78;;
55031;SDS011;40928;51.076;7.950;2024-02-26T14:15:47;7.40;;;4.05;;
55031;SDS011;40928;51.076;7.950;2024-02-26T14:18:13;5.53;;;3.50;;
55031;SDS011;40928;51.076;7.950;2024-02-26T14:20:38;7.97;;;3.47;;
55031;SDS011;40928;51.076;7.950;2024-02-26T14:23:05;6.45;;;3.38;;
55031;SDS011;40928;51.076;7.950;2024-02-26T14:25:32;9.30;;;3.80;;
55031;SDS011;40928;51.076;7.950;2024-02-26T14:27:57;7.00;;;3.65;;
55031;SDS011;40928;51.076;7.950;2024-02-26T14:30:24;5.90;;;3.47;;
55031;SDS011;40928;51.076;7.950;2024-02-26T14:32:51;6.85;;;3.83;;
55031;SDS011;40928;51.076;7.950;2024-02-26T14:35:16;6.22;;;3.20;;
55031;SDS011;40928;51.076;7.950;2024-02-26T14:37:42;7.65;;;3.58;;
55031;SDS011;40928;51.076;7.950;2024-02-26T14:40:11;5.30;;;3.13;;
55031;SDS011;40928;51.076;7.950;2024-02-26T14:42:37;8.07;;;3.70;;
55031;SDS011;40928;51.076;7.950;2024-02-26T14:45:03;6.13;;;3.63;;
55031;SDS011;40928;51.076;7.950;2024-02-26T14:47:32;6.45;;;3.45;;
55031;SDS011;40928;51.076;7.950;2024-02-26T14:49:58;5.05;;;3.45;;
55031;SDS011;40928;51.076;7.950;2024-02-26T14:52:24;4.80;;;3.13;;
55031;SDS011;40928;51.076;7.950;2024-02-26T14:54:49;6.32;;;3.58;;
55031;SDS011;40928;51.076;7.950;2024-02-26T14:57:16;6.30;;;3.22;;
55031;SDS011;40928;51.076;7.950;2024-02-26T14:59:42;6.32;;;3.50;;
55031;SDS011;40928;51.076;7.950;2024-02-26T15:02:09;8.52;;;3.50;;